createdAt,value
2023-03-02T00:00:55.456Z,77.59
2023-03-02T00:01:55.431Z,77.58
2023-03-02T00:02:56.351Z,77.58
2023-03-02T00:03:55.615Z,77.52
2023-03-02T00:04:55.274Z,77.47
2023-03-02T00:05:55.261Z,77.36
2023-03-02T00:06:55.260Z,77.20
2023-03-02T00:07:55.311Z,77.18
2023-03-02T00:08:55.225Z,77.08
2023-03-02T00:09:55.228Z,77.04
2023-03-02T00:10:55.197Z,76.99
2023-03-02T00:11:55.198Z,76.95
2023-03-02T00:12:55.181Z,76.91
2023-03-02T00:13:55.221Z,76.93
2023-03-02T00:14:55.154Z,76.94
2023-03-02T00:15:55.194Z,77.02
2023-03-02T00:16:55.130Z,77.03
2023-03-02T00:17:55.148Z,77.03
2023-03-02T00:18:55.220Z,77.05
2023-03-02T00:19:55.113Z,77.04
2023-03-02T00:20:55.123Z,77.03
2023-03-02T00:21:55.096Z,77.02
2023-03-02T00:22:55.071Z,76.99
2023-03-02T00:23:55.062Z,76.96
2023-03-02T00:24:55.042Z,76.94
2023-03-02T00:25:55.029Z,76.89
2023-03-02T00:26:55.223Z,76.85
2023-03-02T00:27:55.227Z,76.85
2023-03-02T00:28:55.223Z,76.86
2023-03-02T00:29:54.980Z,76.84
2023-03-02T00:30:54.961Z,76.84
2023-03-02T00:31:55.062Z,76.86
2023-03-02T00:32:54.951Z,76.90
2023-03-02T00:33:54.937Z,76.91
2023-03-02T00:34:55.227Z,76.90
2023-03-02T00:35:55.244Z,76.94
2023-03-02T00:36:54.907Z,76.94
2023-03-02T00:37:55.198Z,76.94
2023-03-02T00:38:54.867Z,76.91
2023-03-02T00:39:54.869Z,76.92
2023-03-02T00:40:54.844Z,76.89
2023-03-02T00:41:54.854Z,76.90
2023-03-02T00:42:55.232Z,76.87
2023-03-02T00:43:54.987Z,76.82
2023-03-02T00:44:55.240Z,76.75
2023-03-02T00:45:54.826Z,76.76
2023-03-02T00:46:54.856Z,76.76
2023-03-02T00:47:55.237Z,76.79
2023-03-02T00:48:54.744Z,76.78
2023-03-02T00:49:54.778Z,76.83
2023-03-02T00:50:55.226Z,76.78
2023-03-02T00:51:55.236Z,76.81
2023-03-02T00:52:55.234Z,76.79
2023-03-02T00:53:55.108Z,76.80
2023-03-02T00:54:54.691Z,76.82
2023-03-02T00:55:54.711Z,76.82
2023-03-02T00:56:54.661Z,76.81
2023-03-02T00:57:54.673Z,76.81
2023-03-02T00:58:55.252Z,76.81
2023-03-02T00:59:54.663Z,76.85
2023-03-02T01:00:54.644Z,76.87
2023-03-02T01:01:54.693Z,76.93
2023-03-02T01:02:54.800Z,76.99
2023-03-02T01:03:54.643Z,77.03
2023-03-02T01:04:54.574Z,77.09
2023-03-02T01:05:54.593Z,77.12
2023-03-02T01:06:54.618Z,77.20
2023-03-02T01:07:54.569Z,77.32
2023-03-02T01:08:54.685Z,77.41
2023-03-02T01:09:54.569Z,77.43
2023-03-02T01:10:54.517Z,77.43
2023-03-02T01:11:54.513Z,77.44
2023-03-02T01:12:54.515Z,77.49
2023-03-02T01:13:54.513Z,77.49
2023-03-02T01:14:54.866Z,77.55
2023-03-02T01:15:54.936Z,77.64
2023-03-02T01:16:54.935Z,77.72
2023-03-02T01:17:54.964Z,77.78
2023-03-02T01:18:54.425Z,77.80
2023-03-02T01:19:54.421Z,77.86
2023-03-02T01:20:54.423Z,77.89
2023-03-02T01:21:54.404Z,77.90
2023-03-02T01:22:55.117Z,78.04
2023-03-02T01:23:54.631Z,78.01
2023-03-02T01:24:55.128Z,78.05
2023-03-02T01:25:54.373Z,78.09
2023-03-02T01:26:54.310Z,78.10
2023-03-02T01:27:54.324Z,78.12
2023-03-02T01:28:54.294Z,78.17
2023-03-02T01:29:54.308Z,78.24
2023-03-02T01:30:54.283Z,78.34
2023-03-02T01:31:54.405Z,78.30
2023-03-02T01:32:54.279Z,78.29
2023-03-02T01:33:54.282Z,78.30
2023-03-02T01:34:54.224Z,78.32
2023-03-02T01:35:54.274Z,78.34
2023-03-02T01:36:54.228Z,78.33
2023-03-02T01:37:54.217Z,78.34
2023-03-02T01:38:54.337Z,78.38
2023-03-02T01:39:54.230Z,78.39
2023-03-02T01:40:54.159Z,78.40
2023-03-02T01:41:54.180Z,78.39
2023-03-02T01:42:54.133Z,78.41
2023-03-02T01:43:54.158Z,78.40
2023-03-02T01:44:54.150Z,78.50
2023-03-02T01:45:54.320Z,78.51
2023-03-02T01:46:54.282Z,78.55
2023-03-02T01:47:54.290Z,78.59
2023-03-02T01:48:54.071Z,78.59
2023-03-02T01:49:54.071Z,78.59
2023-03-02T01:50:54.052Z,78.59
2023-03-02T01:51:54.130Z,78.58
2023-03-02T01:52:54.091Z,78.66
2023-03-02T01:53:55.213Z,78.79
2023-03-02T01:54:54.013Z,78.83
2023-03-02T01:55:54.186Z,78.80
2023-03-02T01:56:53.991Z,78.80
2023-03-02T01:57:54.074Z,78.81
2023-03-02T01:58:53.955Z,78.83
2023-03-02T01:59:53.971Z,78.85
2023-03-02T02:00:53.973Z,78.97
2023-03-02T02:01:53.958Z,78.99
2023-03-02T02:02:54.304Z,79.01
2023-03-02T02:03:54.253Z,79.01
2023-03-02T02:04:54.306Z,79.04
2023-03-02T02:05:53.887Z,79.08
2023-03-02T02:06:54.074Z,79.11
2023-03-02T02:07:53.870Z,79.18
2023-03-02T02:08:53.831Z,79.22
2023-03-02T02:09:53.850Z,79.27
2023-03-02T02:10:54.302Z,79.27
2023-03-02T02:11:54.307Z,79.25
2023-03-02T02:12:54.310Z,79.23
2023-03-02T02:13:54.304Z,79.23
2023-03-02T02:14:53.784Z,79.20
2023-03-02T02:15:53.788Z,79.20
2023-03-02T02:16:53.819Z,79.20
2023-03-02T02:17:53.757Z,79.18
2023-03-02T02:18:53.958Z,79.14
2023-03-02T02:19:54.318Z,79.15
2023-03-02T02:20:53.708Z,79.17
2023-03-02T02:21:53.803Z,79.19
2023-03-02T02:22:53.681Z,79.20
2023-03-02T02:23:53.667Z,79.18
2023-03-02T02:24:53.673Z,79.15
2023-03-02T02:25:53.648Z,79.17
2023-03-02T02:26:54.316Z,79.17
2023-03-02T02:27:54.318Z,79.19
2023-03-02T02:28:54.074Z,79.24
2023-03-02T02:29:54.319Z,79.23
2023-03-02T02:30:53.597Z,79.24
2023-03-02T02:31:53.713Z,79.29
2023-03-02T02:32:53.628Z,79.32
2023-03-02T02:33:53.559Z,79.41
2023-03-02T02:34:53.593Z,79.54
2023-03-02T02:35:53.567Z,79.58
2023-03-02T02:36:53.542Z,79.69
2023-03-02T02:37:53.544Z,79.74
2023-03-02T02:38:53.522Z,79.78
2023-03-02T02:39:53.488Z,79.78
2023-03-02T02:40:53.502Z,79.83
2023-03-02T02:41:53.460Z,79.81
2023-03-02T02:42:53.486Z,79.84
2023-03-02T02:43:53.759Z,79.84
2023-03-02T02:44:53.449Z,79.84
2023-03-02T02:45:53.478Z,79.86
2023-03-02T02:46:53.427Z,79.86
2023-03-02T02:47:53.422Z,79.84
2023-03-02T02:48:53.404Z,79.84
2023-03-02T02:49:53.381Z,79.84
2023-03-02T02:50:53.603Z,79.78
2023-03-02T02:51:53.372Z,79.75
2023-03-02T02:52:53.380Z,79.74
2023-03-02T02:53:53.326Z,79.74
2023-03-02T02:54:53.343Z,79.64
2023-03-02T02:55:53.307Z,79.49
2023-03-02T02:56:53.315Z,79.57
2023-03-02T02:57:53.286Z,79.64
2023-03-02T02:58:53.334Z,79.68
2023-03-02T02:59:53.336Z,79.63
2023-03-02T03:00:53.306Z,79.63
2023-03-02T03:01:53.242Z,79.63
2023-03-02T03:02:53.235Z,79.63
2023-03-02T03:03:53.299Z,79.64
2023-03-02T03:04:53.224Z,79.69
2023-03-02T03:05:53.194Z,79.69
2023-03-02T03:06:53.370Z,79.69
2023-03-02T03:07:53.324Z,79.72
2023-03-02T03:08:53.347Z,79.73
2023-03-02T03:09:53.196Z,79.72
2023-03-02T03:10:53.155Z,79.75
2023-03-02T03:11:53.122Z,79.76
2023-03-02T03:12:53.136Z,79.76
2023-03-02T03:13:53.114Z,79.76
2023-03-02T03:14:53.197Z,79.71
2023-03-02T03:15:53.083Z,79.71
2023-03-02T03:16:53.158Z,79.70
2023-03-02T03:17:53.344Z,79.67
2023-03-02T03:18:53.088Z,79.68
2023-03-02T03:19:53.041Z,79.64
2023-03-02T03:20:53.747Z,79.65
2023-03-02T03:21:53.016Z,79.64
2023-03-02T03:22:53.358Z,79.66
2023-03-02T03:23:53.014Z,79.66
2023-03-02T03:24:52.989Z,79.71
2023-03-02T03:25:52.959Z,79.79
2023-03-02T03:26:52.963Z,79.83
2023-03-02T03:27:52.942Z,79.86
2023-03-02T03:28:52.952Z,79.86
2023-03-02T03:29:52.947Z,79.85
2023-03-02T03:30:53.290Z,79.85
2023-03-02T03:31:53.328Z,79.86
2023-03-02T03:32:53.285Z,79.86
2023-03-02T03:33:52.874Z,79.87
2023-03-02T03:34:52.887Z,79.95
2023-03-02T03:35:52.864Z,80.02
2023-03-02T03:36:52.845Z,80.01
2023-03-02T03:37:52.825Z,80.02
2023-03-02T03:38:53.196Z,80.04
2023-03-02T03:39:53.359Z,80.02
2023-03-02T03:40:52.808Z,80.03
2023-03-02T03:41:52.776Z,80.01
2023-03-02T03:42:52.772Z,80.02
2023-03-02T03:43:52.754Z,80.02
2023-03-02T03:44:52.789Z,80.02
2023-03-02T03:45:52.765Z,80.08
2023-03-02T03:46:53.367Z,80.15
2023-03-02T03:47:52.704Z,80.23
2023-03-02T03:48:52.717Z,80.27
2023-03-02T03:49:52.724Z,80.34
2023-03-02T03:50:52.690Z,80.41
2023-03-02T03:51:52.671Z,80.46
2023-03-02T03:52:52.664Z,80.45
2023-03-02T03:53:52.637Z,80.47
2023-03-02T03:54:53.374Z,80.53
2023-03-02T03:55:52.616Z,80.52
2023-03-02T03:56:52.613Z,80.59
2023-03-02T03:57:52.600Z,80.65
2023-03-02T03:58:52.606Z,80.69
2023-03-02T03:59:52.571Z,80.69
2023-03-02T04:00:52.588Z,80.70
2023-03-02T04:01:52.604Z,80.71
2023-03-02T04:02:53.406Z,80.70
2023-03-02T04:03:53.012Z,80.70
2023-03-02T04:04:53.380Z,80.70
2023-03-02T04:05:53.372Z,80.71
2023-03-02T04:06:52.871Z,80.72
2023-03-02T04:07:52.473Z,80.72
2023-03-02T04:08:52.498Z,80.70
2023-03-02T04:09:52.485Z,80.70
2023-03-02T04:10:52.488Z,80.74
2023-03-02T04:11:52.489Z,80.74
2023-03-02T04:12:52.527Z,80.72
2023-03-02T04:13:52.418Z,80.74
2023-03-02T04:14:52.409Z,80.80
2023-03-02T04:15:52.450Z,80.89
2023-03-02T04:16:52.402Z,80.89
2023-03-02T04:17:52.392Z,80.91
2023-03-02T04:18:52.387Z,80.95
2023-03-02T04:19:52.750Z,80.97
2023-03-02T04:20:52.391Z,80.97
2023-03-02T04:21:52.385Z,81.03
2023-03-02T04:22:52.340Z,81.07
2023-03-02T04:23:52.295Z,81.07
2023-03-02T04:24:52.308Z,81.12
2023-03-02T04:25:52.286Z,81.14
2023-03-02T04:26:52.386Z,81.13
2023-03-02T04:27:53.004Z,81.17
2023-03-02T04:28:52.396Z,81.18
2023-03-02T04:29:52.233Z,81.19
2023-03-02T04:30:52.313Z,81.19
2023-03-02T04:31:52.310Z,81.23
2023-03-02T04:32:52.221Z,81.22
2023-03-02T04:33:52.699Z,81.25
2023-03-02T04:34:52.404Z,81.25
2023-03-02T04:35:53.215Z,81.24
2023-03-02T04:36:52.391Z,81.26
2023-03-02T04:37:52.151Z,81.28
2023-03-02T04:38:52.158Z,81.28
2023-03-02T04:39:52.127Z,81.30
2023-03-02T04:40:52.132Z,81.33
2023-03-02T04:41:52.329Z,81.34
2023-03-02T04:42:52.418Z,81.43
2023-03-02T04:43:52.595Z,81.46
2023-03-02T04:44:52.098Z,81.45
2023-03-02T04:45:52.058Z,81.44
2023-03-02T04:46:52.152Z,81.45
2023-03-02T04:47:52.053Z,81.48
2023-03-02T04:48:52.041Z,81.48
2023-03-02T04:49:52.156Z,81.52
2023-03-02T04:50:52.439Z,81.53
2023-03-02T04:51:53.152Z,81.53
2023-03-02T04:52:52.430Z,81.55
2023-03-02T04:53:51.987Z,81.58
2023-03-02T04:54:51.981Z,81.58
2023-03-02T04:55:52.715Z,81.59
2023-03-02T04:56:51.972Z,81.63
2023-03-02T04:57:51.949Z,81.61
2023-03-02T04:58:51.989Z,81.67
2023-03-02T04:59:52.033Z,81.68
2023-03-02T05:00:51.910Z,81.70
2023-03-02T05:01:51.931Z,81.73
2023-03-02T05:02:51.895Z,81.74
2023-03-02T05:03:51.881Z,81.76
2023-03-02T05:04:51.927Z,81.79
2023-03-02T05:05:51.844Z,81.86
2023-03-02T05:06:52.275Z,81.89
2023-03-02T05:07:52.298Z,81.93
2023-03-02T05:08:51.842Z,81.93
2023-03-02T05:09:51.846Z,81.99
2023-03-02T05:10:51.800Z,82.00
2023-03-02T05:11:51.769Z,82.03
2023-03-02T05:12:51.788Z,82.08
2023-03-02T05:13:51.767Z,82.10
2023-03-02T05:14:52.438Z,82.09
2023-03-02T05:15:52.469Z,82.10
2023-03-02T05:16:51.759Z,82.10
2023-03-02T05:17:51.723Z,82.12
2023-03-02T05:18:51.721Z,82.16
2023-03-02T05:19:51.701Z,82.16
2023-03-02T05:20:51.686Z,82.18
2023-03-02T05:21:51.668Z,82.36
2023-03-02T05:22:51.672Z,82.36
2023-03-02T05:23:51.656Z,82.36
2023-03-02T05:24:51.659Z,82.36
2023-03-02T05:25:51.619Z,82.41
2023-03-02T05:26:51.618Z,82.48
2023-03-02T05:27:51.594Z,82.54
2023-03-02T05:28:53.965Z,82.61
2023-03-02T05:29:52.597Z,82.66
2023-03-02T05:30:52.459Z,82.66
2023-03-02T05:31:52.514Z,82.61
2023-03-02T05:32:52.306Z,82.63
2023-03-02T05:33:51.548Z,82.68
2023-03-02T05:34:51.545Z,82.69
2023-03-02T05:35:51.573Z,82.73
2023-03-02T05:36:51.512Z,82.80
2023-03-02T05:37:51.496Z,82.81
2023-03-02T05:38:51.498Z,82.80
2023-03-02T05:39:51.480Z,82.79
2023-03-02T05:40:51.488Z,82.77
2023-03-02T05:41:51.439Z,82.73
2023-03-02T05:42:51.435Z,82.73
2023-03-02T05:43:51.417Z,82.70
2023-03-02T05:44:51.416Z,82.70
2023-03-02T05:45:51.463Z,82.70
2023-03-02T05:46:51.509Z,82.67
2023-03-02T05:47:51.473Z,82.65
2023-03-02T05:48:51.375Z,82.63
2023-03-02T05:49:51.346Z,82.64
2023-03-02T05:50:51.346Z,82.62
2023-03-02T05:51:51.339Z,82.60
2023-03-02T05:52:51.475Z,82.59
2023-03-02T05:53:51.465Z,82.55
2023-03-02T05:54:51.464Z,82.55
2023-03-02T05:55:51.470Z,82.52
2023-03-02T05:56:51.295Z,82.53
2023-03-02T05:57:51.269Z,82.50
2023-03-02T05:58:51.258Z,82.51
2023-03-02T05:59:51.464Z,82.47
2023-03-02T06:00:51.230Z,82.43
2023-03-02T06:01:51.507Z,82.38
2023-03-02T06:02:51.506Z,82.36
2023-03-02T06:03:51.472Z,82.35
2023-03-02T06:04:51.191Z,82.35
2023-03-02T06:05:51.148Z,82.36
2023-03-02T06:06:51.480Z,82.36
2023-03-02T06:07:51.158Z,82.38
2023-03-02T06:08:51.142Z,82.37
2023-03-02T06:09:51.469Z,82.37
2023-03-02T06:10:51.479Z,82.41
2023-03-02T06:11:51.472Z,82.39
2023-03-02T06:12:51.105Z,82.42
2023-03-02T06:13:51.088Z,82.42
2023-03-02T06:14:51.482Z,82.46
2023-03-02T06:15:51.066Z,82.49
2023-03-02T06:16:51.105Z,82.52
2023-03-02T06:17:51.506Z,82.54
2023-03-02T06:18:51.423Z,82.57
2023-03-02T06:19:51.479Z,82.60
2023-03-02T06:20:50.998Z,82.63
2023-03-02T06:21:50.998Z,82.64
2023-03-02T06:22:50.982Z,82.66
2023-03-02T06:23:50.973Z,82.71
2023-03-02T06:24:51.487Z,82.73
2023-03-02T06:25:51.054Z,82.73
2023-03-02T06:26:50.945Z,82.76
2023-03-02T06:27:50.919Z,82.79
2023-03-02T06:28:53.212Z,82.79
2023-03-02T06:29:50.892Z,82.80
2023-03-02T06:30:50.891Z,82.81
2023-03-02T06:31:50.950Z,82.86
2023-03-02T06:32:50.991Z,82.89
2023-03-02T06:33:50.926Z,82.90
2023-03-02T06:34:51.100Z,82.99
2023-03-02T06:35:51.271Z,83.02
2023-03-02T06:36:50.829Z,83.01
2023-03-02T06:37:50.820Z,83.02
2023-03-02T06:38:51.268Z,83.05
2023-03-02T06:39:50.812Z,83.13
2023-03-02T06:40:50.771Z,83.21
2023-03-02T06:41:51.366Z,83.22
2023-03-02T06:42:51.402Z,83.26
2023-03-02T06:43:51.440Z,83.25
2023-03-02T06:44:50.738Z,83.27
2023-03-02T06:45:50.785Z,83.27
2023-03-02T06:46:50.750Z,83.33
2023-03-02T06:47:50.713Z,83.31
2023-03-02T06:48:51.386Z,83.36
2023-03-02T06:49:51.518Z,83.34
2023-03-02T06:50:51.470Z,83.32
2023-03-02T06:51:51.470Z,83.32
2023-03-02T06:52:50.638Z,83.32
2023-03-02T06:53:51.510Z,83.33
2023-03-02T06:54:50.651Z,83.36
2023-03-02T06:55:50.627Z,83.37
2023-03-02T06:56:50.589Z,83.43
2023-03-02T06:57:50.635Z,83.46
2023-03-02T06:58:51.511Z,83.44
2023-03-02T06:59:51.517Z,83.45
2023-03-02T07:00:50.598Z,83.46
2023-03-02T07:01:50.580Z,83.48
2023-03-02T07:02:50.530Z,83.51
2023-03-02T07:03:50.577Z,83.50
2023-03-02T07:04:50.522Z,83.53
2023-03-02T07:05:50.519Z,83.55
2023-03-02T07:06:50.508Z,83.55
2023-03-02T07:07:50.517Z,83.54
2023-03-02T07:08:50.448Z,83.54
2023-03-02T07:09:50.458Z,83.55
2023-03-02T07:10:50.458Z,83.54
2023-03-02T07:11:50.470Z,83.54
2023-03-02T07:12:50.415Z,83.54
2023-03-02T07:13:50.424Z,83.54
2023-03-02T07:14:50.392Z,83.52
2023-03-02T07:15:50.470Z,83.54
2023-03-02T07:16:50.405Z,83.52
2023-03-02T07:17:50.364Z,83.53
2023-03-02T07:18:50.333Z,83.52
2023-03-02T07:19:50.334Z,83.52
2023-03-02T07:20:50.341Z,83.51
2023-03-02T07:21:50.344Z,83.52
2023-03-02T07:22:50.493Z,83.52
2023-03-02T07:23:50.527Z,83.49
2023-03-02T07:24:50.284Z,83.45
2023-03-02T07:25:50.274Z,83.49
2023-03-02T07:26:50.247Z,83.56
2023-03-02T07:27:50.274Z,83.66
2023-03-02T07:28:50.222Z,83.65
2023-03-02T07:29:50.533Z,83.64
2023-03-02T07:30:50.550Z,83.62
2023-03-02T07:31:50.305Z,83.44
2023-03-02T07:32:50.197Z,83.24
2023-03-02T07:33:50.171Z,83.03
2023-03-02T07:34:50.147Z,82.71
2023-03-02T07:35:50.218Z,82.24
2023-03-02T07:36:50.124Z,81.77
2023-03-02T07:37:50.531Z,81.08
2023-03-02T07:38:50.535Z,80.56
2023-03-02T07:39:50.426Z,79.99
2023-03-02T07:40:50.100Z,79.34
2023-03-02T07:41:50.081Z,79.09
2023-03-02T07:42:50.071Z,78.56
2023-03-02T07:43:50.079Z,77.91
2023-03-02T07:44:50.045Z,77.63
2023-03-02T07:45:50.548Z,77.27
2023-03-02T07:46:50.615Z,77.00
2023-03-02T07:47:50.044Z,76.46
2023-03-02T07:48:49.997Z,75.84
2023-03-02T07:49:50.005Z,75.16
2023-03-02T07:50:49.974Z,74.79
2023-03-02T07:51:49.966Z,74.16
2023-03-02T07:52:49.961Z,73.51
2023-03-02T07:53:49.945Z,72.79
2023-03-02T07:54:49.973Z,72.29
2023-03-02T07:55:50.014Z,72.18
2023-03-02T07:56:49.904Z,71.99
2023-03-02T07:57:49.931Z,71.82
2023-03-02T07:58:49.879Z,71.34
2023-03-02T07:59:49.871Z,71.08
2023-03-02T08:00:49.857Z,70.65
2023-03-02T08:01:49.981Z,70.19
2023-03-02T08:02:49.909Z,69.92
2023-03-02T08:03:49.842Z,69.68
2023-03-02T08:04:49.811Z,69.56
2023-03-02T08:05:49.835Z,69.51
2023-03-02T08:06:49.807Z,69.63
2023-03-02T08:07:49.822Z,69.40
2023-03-02T08:08:50.164Z,68.97
2023-03-02T08:09:49.763Z,68.71
2023-03-02T08:10:49.763Z,68.47
2023-03-02T08:11:49.752Z,68.04
2023-03-02T08:12:49.759Z,67.62
2023-03-02T08:13:50.338Z,67.10
2023-03-02T08:14:49.697Z,66.48
2023-03-02T08:15:49.750Z,66.06
2023-03-02T08:16:50.427Z,66.11
2023-03-02T08:17:50.460Z,65.85
2023-03-02T08:18:49.669Z,65.99
2023-03-02T08:19:50.551Z,65.84
2023-03-02T08:20:49.629Z,65.43
2023-03-02T08:21:49.637Z,65.01
2023-03-02T08:22:49.627Z,64.91
2023-03-02T08:23:49.620Z,64.87
2023-03-02T08:24:49.983Z,64.35
2023-03-02T08:25:49.590Z,63.63
2023-03-02T08:26:49.577Z,63.22
2023-03-02T08:27:50.347Z,62.75
2023-03-02T08:28:50.576Z,62.65
2023-03-02T08:29:49.530Z,62.67
2023-03-02T08:30:49.548Z,62.00
2023-03-02T08:31:50.574Z,61.01
2023-03-02T08:32:50.438Z,60.44
2023-03-02T08:33:49.579Z,60.11
2023-03-02T08:34:49.481Z,60.06
2023-03-02T08:35:51.336Z,59.69
2023-03-02T08:36:49.454Z,59.34
2023-03-02T08:37:49.442Z,59.50
2023-03-02T08:38:49.427Z,58.75
2023-03-02T08:39:49.420Z,59.08
2023-03-02T08:40:49.657Z,59.52
2023-03-02T08:41:49.590Z,59.82
2023-03-02T08:42:49.371Z,60.02
2023-03-02T08:43:49.385Z,59.61
2023-03-02T08:44:49.349Z,58.62
2023-03-02T08:45:49.443Z,58.72
2023-03-02T08:46:49.360Z,59.40
2023-03-02T08:47:49.477Z,59.75
2023-03-02T08:48:49.304Z,59.59
2023-03-02T08:49:49.306Z,59.36
2023-03-02T08:50:49.265Z,59.58
2023-03-02T08:51:49.281Z,59.54
2023-03-02T08:52:49.281Z,60.18
2023-03-02T08:53:49.264Z,60.43
2023-03-02T08:54:49.255Z,60.02
2023-03-02T08:55:49.230Z,59.87
2023-03-02T08:56:49.208Z,59.82
2023-03-02T08:57:49.616Z,59.71
2023-03-02T08:58:49.191Z,59.97
2023-03-02T08:59:49.847Z,59.94
2023-03-02T09:00:49.243Z,59.51
2023-03-02T09:01:49.255Z,59.63
2023-03-02T09:02:49.146Z,59.65
2023-03-02T09:03:49.124Z,59.93
2023-03-02T09:04:49.165Z,60.06
2023-03-02T09:05:49.110Z,59.93
2023-03-02T09:06:49.100Z,60.48
2023-03-02T09:07:49.119Z,60.63
2023-03-02T09:08:49.105Z,60.77
2023-03-02T09:09:49.070Z,60.99
2023-03-02T09:10:49.035Z,60.99
2023-03-02T09:11:49.048Z,60.80
2023-03-02T09:12:49.058Z,60.89
2023-03-02T09:13:49.613Z,60.89
2023-03-02T09:14:48.999Z,61.13
2023-03-02T09:15:49.840Z,60.95
2023-03-02T09:16:49.042Z,60.91
2023-03-02T09:17:49.013Z,60.89
2023-03-02T09:18:48.992Z,60.76
2023-03-02T09:19:49.011Z,60.70
2023-03-02T09:20:49.130Z,61.06
2023-03-02T09:21:48.935Z,60.49
2023-03-02T09:22:48.940Z,61.18
2023-03-02T09:23:48.921Z,61.11
2023-03-02T09:24:48.896Z,61.26
2023-03-02T09:25:48.916Z,61.52
2023-03-02T09:26:48.862Z,61.69
2023-03-02T09:27:48.915Z,60.94
2023-03-02T09:28:49.449Z,60.62
2023-03-02T09:29:48.889Z,60.79
2023-03-02T09:30:48.864Z,61.44
2023-03-02T09:31:48.979Z,61.71
2023-03-02T09:32:48.959Z,62.09
2023-03-02T09:33:48.819Z,62.04
2023-03-02T09:34:48.753Z,61.47
2023-03-02T09:35:48.821Z,61.72
2023-03-02T09:36:49.058Z,61.39
2023-03-02T09:37:49.123Z,61.37
2023-03-02T09:38:48.780Z,61.61
2023-03-02T09:39:49.220Z,61.85
2023-03-02T09:40:48.713Z,60.76
2023-03-02T09:41:48.702Z,60.86
2023-03-02T09:42:48.671Z,61.32
2023-03-02T09:43:48.703Z,61.89
2023-03-02T09:44:48.668Z,60.41
2023-03-02T09:45:48.699Z,60.92
2023-03-02T09:46:48.623Z,60.95
2023-03-02T09:47:48.638Z,60.86
2023-03-02T09:48:48.613Z,59.95
2023-03-02T09:49:48.605Z,60.87
2023-03-02T09:50:48.621Z,61.11
2023-03-02T09:51:48.587Z,61.07
2023-03-02T09:52:48.905Z,60.43
2023-03-02T09:53:48.641Z,60.94
2023-03-02T09:54:48.585Z,62.21
2023-03-02T09:55:48.550Z,61.71
2023-03-02T09:56:48.503Z,61.57
2023-03-02T09:57:48.522Z,61.38
2023-03-02T09:58:48.483Z,61.42
2023-03-02T09:59:48.489Z,60.93
2023-03-02T10:00:48.655Z,60.74
2023-03-02T10:01:48.462Z,60.35
2023-03-02T10:02:48.487Z,60.18
2023-03-02T10:03:48.618Z,60.25
2023-03-02T10:04:48.530Z,60.03
2023-03-02T10:05:48.419Z,60.24
2023-03-02T10:06:48.392Z,60.17
2023-03-02T10:07:48.396Z,59.68
2023-03-02T10:08:48.373Z,59.43
2023-03-02T10:09:48.369Z,58.77
2023-03-02T10:10:48.355Z,58.94
2023-03-02T10:11:48.364Z,59.17
2023-03-02T10:12:48.314Z,59.15
2023-03-02T10:13:48.327Z,58.87
2023-03-02T10:14:48.318Z,59.12
2023-03-02T10:15:48.440Z,59.29
2023-03-02T10:16:48.339Z,59.12
2023-03-02T10:17:48.267Z,59.61
2023-03-02T10:18:48.390Z,60.28
2023-03-02T10:19:48.307Z,59.75
2023-03-02T10:20:48.264Z,59.59
2023-03-02T10:21:48.259Z,59.50
2023-03-02T10:22:48.293Z,59.19
2023-03-02T10:23:48.237Z,58.89
2023-03-02T10:24:48.638Z,58.71
2023-03-02T10:25:48.217Z,57.84
2023-03-02T10:26:48.209Z,58.34
2023-03-02T10:27:48.286Z,59.33
2023-03-02T10:28:48.126Z,59.86
2023-03-02T10:29:48.128Z,60.37
2023-03-02T10:30:48.163Z,59.60
2023-03-02T10:31:48.121Z,58.91
2023-03-02T10:32:48.110Z,58.67
2023-03-02T10:33:48.672Z,58.32
2023-03-02T10:34:48.065Z,58.28
2023-03-02T10:35:48.096Z,58.71
2023-03-02T10:36:48.046Z,58.49
2023-03-02T10:37:48.074Z,58.40
2023-03-02T10:38:48.027Z,58.50
2023-03-02T10:39:49.462Z,59.23
2023-03-02T10:40:48.152Z,58.72
2023-03-02T10:41:47.982Z,58.10
2023-03-02T10:42:47.997Z,59.51
2023-03-02T10:43:47.972Z,60.06
2023-03-02T10:44:47.943Z,60.34
2023-03-02T10:45:48.006Z,60.61
2023-03-02T10:46:47.987Z,60.11
2023-03-02T10:47:47.948Z,60.58
2023-03-02T10:48:49.876Z,60.59
2023-03-02T10:49:48.476Z,60.70
2023-03-02T10:50:47.878Z,60.13
2023-03-02T10:51:48.551Z,59.78
2023-03-02T10:52:59.239Z,59.51
2023-03-02T10:53:49.591Z,59.68
2023-03-02T10:54:48.662Z,59.77
2023-03-02T10:55:48.698Z,59.59
2023-03-02T10:56:48.049Z,59.41
2023-03-02T10:57:48.002Z,59.21
2023-03-02T10:58:47.801Z,59.58
2023-03-02T10:59:47.824Z,60.09
2023-03-02T11:00:47.812Z,60.77
2023-03-02T11:01:47.827Z,61.63
2023-03-02T11:02:47.772Z,60.28
2023-03-02T11:03:47.712Z,59.75
2023-03-02T11:04:47.992Z,59.93
2023-03-02T11:05:47.742Z,60.02
2023-03-02T11:06:47.708Z,59.17
2023-03-02T11:07:47.708Z,58.16
2023-03-02T11:08:47.697Z,58.27
2023-03-02T11:09:47.692Z,59.22
2023-03-02T11:10:48.164Z,59.31
2023-03-02T11:11:48.129Z,59.71
2023-03-02T11:12:47.705Z,59.92
2023-03-02T11:13:47.629Z,59.61
2023-03-02T11:14:47.607Z,59.20
2023-03-02T11:15:47.659Z,58.79
2023-03-02T11:16:47.598Z,59.09
2023-03-02T11:17:47.574Z,59.38
2023-03-02T11:18:47.588Z,58.85
2023-03-02T11:19:47.572Z,57.67
2023-03-02T11:20:47.572Z,57.70
2023-03-02T11:21:47.567Z,57.43
2023-03-02T11:22:47.567Z,57.23
2023-03-02T11:23:47.563Z,57.27
2023-03-02T11:24:47.517Z,57.13
2023-03-02T11:25:47.477Z,56.88
2023-03-02T11:26:47.590Z,56.53
2023-03-02T11:27:47.555Z,56.36
2023-03-02T11:28:47.623Z,56.62
2023-03-02T11:29:47.555Z,56.35
2023-03-02T11:30:47.568Z,56.49
2023-03-02T11:31:47.564Z,56.26
2023-03-02T11:32:47.722Z,55.70
2023-03-02T11:33:47.603Z,54.28
2023-03-02T11:34:47.410Z,53.92
2023-03-02T11:35:47.610Z,54.38
2023-03-02T11:36:47.555Z,54.79
2023-03-02T11:37:47.572Z,54.69
2023-03-02T11:38:47.559Z,53.78
2023-03-02T11:39:55.037Z,54.24
2023-03-02T11:40:48.382Z,55.14
2023-03-02T11:41:47.565Z,54.42
2023-03-02T11:42:47.278Z,54.13
2023-03-02T11:43:47.260Z,53.55
2023-03-02T11:44:47.297Z,53.86
2023-03-02T11:45:48.208Z,54.65
2023-03-02T11:46:47.367Z,54.57
2023-03-02T11:47:51.579Z,54.78
2023-03-02T11:48:48.232Z,54.71
2023-03-02T11:49:47.188Z,54.02
2023-03-02T11:50:47.184Z,52.62
2023-03-02T11:51:53.309Z,52.99
2023-03-02T11:52:48.770Z,53.52
2023-03-02T11:53:47.153Z,53.70
2023-03-02T11:54:47.168Z,53.70
2023-03-02T11:55:47.212Z,53.55
2023-03-02T11:56:47.635Z,53.21
2023-03-02T11:57:47.276Z,53.35
2023-03-02T11:58:47.402Z,53.12
2023-03-02T11:59:47.088Z,53.13
2023-03-02T12:00:47.118Z,52.80
2023-03-02T12:01:47.083Z,52.34
2023-03-02T12:02:47.034Z,52.94
2023-03-02T12:03:47.044Z,53.45
2023-03-02T12:04:47.034Z,52.91
2023-03-02T12:05:47.037Z,52.68
2023-03-02T12:06:47.026Z,52.78
2023-03-02T12:07:46.961Z,52.39
2023-03-02T12:08:47.442Z,52.28
2023-03-02T12:09:46.970Z,52.48
2023-03-02T12:10:46.981Z,52.57
2023-03-02T12:11:46.926Z,52.50
2023-03-02T12:12:46.924Z,52.17
2023-03-02T12:13:47.576Z,52.07
2023-03-02T12:14:46.910Z,52.01
2023-03-02T12:15:46.892Z,52.26
2023-03-02T12:16:47.636Z,52.07
2023-03-02T12:17:46.899Z,52.15
2023-03-02T12:18:47.584Z,51.83
2023-03-02T12:19:46.830Z,52.06
2023-03-02T12:20:46.868Z,52.57
2023-03-02T12:21:46.813Z,51.77
2023-03-02T12:22:46.816Z,51.79
2023-03-02T12:23:46.797Z,51.76
2023-03-02T12:24:47.572Z,51.69
2023-03-02T12:25:47.562Z,51.34
2023-03-02T12:26:47.597Z,52.23
2023-03-02T12:27:46.759Z,51.43
2023-03-02T12:28:46.742Z,51.55
2023-03-02T12:29:46.739Z,51.27
2023-03-02T12:30:46.738Z,50.83
2023-03-02T12:31:46.724Z,51.00
2023-03-02T12:32:46.856Z,50.94
2023-03-02T12:33:46.675Z,50.93
2023-03-02T12:34:46.924Z,51.12
2023-03-02T12:35:46.688Z,51.31
2023-03-02T12:36:46.994Z,51.53
2023-03-02T12:37:46.763Z,51.78
2023-03-02T12:38:46.688Z,51.93
2023-03-02T12:39:46.681Z,52.08
2023-03-02T12:40:46.655Z,51.96
2023-03-02T12:41:46.620Z,51.64
2023-03-02T12:42:46.584Z,51.18
2023-03-02T12:43:46.555Z,51.27
2023-03-02T12:44:46.557Z,50.74
2023-03-02T12:45:46.584Z,50.77
2023-03-02T12:46:46.551Z,50.32
2023-03-02T12:47:46.917Z,50.14
2023-03-02T12:48:47.202Z,50.26
2023-03-02T12:49:46.615Z,50.56
2023-03-02T12:50:46.792Z,50.27
2023-03-02T12:51:46.588Z,50.38
2023-03-02T12:52:46.459Z,50.45